createdAt,value
2016-05-25T00:00:13.172Z,1007.77
2016-05-25T00:01:13.159Z,1007.78
2016-05-25T00:02:13.130Z,1007.79
2016-05-25T00:03:13.102Z,1007.8
2016-05-25T00:04:13.074Z,1007.85
2016-05-25T00:05:13.061Z,1007.83
2016-05-25T00:06:13.033Z,1007.83
2016-05-25T00:07:13.004Z,1007.86
2016-05-25T00:08:12.991Z,1007.8
2016-05-25T00:09:12.963Z,1007.79
2016-05-25T00:10:12.933Z,1007.77
2016-05-25T00:11:12.921Z,1007.79
2016-05-25T00:12:12.892Z,1007.76
2016-05-25T00:13:12.863Z,1007.75
2016-05-25T00:14:12.835Z,1007.73
2016-05-25T00:15:12.821Z,1007.76
2016-05-25T00:16:13.185Z,1007.72
2016-05-25T00:17:12.781Z,1007.73
2016-05-25T00:18:12.737Z,1007.7
2016-05-25T00:19:12.723Z,1007.72
2016-05-25T00:20:12.695Z,1007.68
2016-05-25T00:21:12.667Z,1007.68
2016-05-25T00:22:12.653Z,1007.67
2016-05-25T00:23:12.625Z,1007.66
2016-05-25T00:24:12.596Z,1007.66
2016-05-25T00:25:12.584Z,1007.66
2016-05-25T00:26:12.555Z,1007.64
2016-05-25T00:27:12.526Z,1007.61
2016-05-25T00:28:12.514Z,1007.57
2016-05-25T00:29:12.485Z,1007.59
2016-05-25T00:30:12.456Z,1007.57
2016-05-25T00:31:12.444Z,1007.62
2016-05-25T00:32:12.414Z,1007.63
2016-05-25T00:33:12.386Z,1007.63
2016-05-25T00:34:12.358Z,1007.64
2016-05-25T00:35:12.344Z,1007.62
2016-05-25T00:36:12.316Z,1007.66
2016-05-25T00:37:12.287Z,1007.61
2016-05-25T00:38:12.275Z,1007.63
2016-05-25T00:39:12.247Z,1007.61
2016-05-25T00:40:12.218Z,1007.59
2016-05-25T00:41:12.189Z,1007.6
2016-05-25T00:42:12.176Z,1007.59
2016-05-25T00:43:12.147Z,1007.63
2016-05-25T00:44:12.118Z,1007.61
2016-05-25T00:45:12.106Z,1007.63
2016-05-25T00:46:12.077Z,1007.62
2016-05-25T00:47:12.049Z,1007.69
2016-05-25T00:48:12.036Z,1007.69
2016-05-25T00:49:12.007Z,1007.68
2016-05-25T00:50:11.979Z,1007.68
2016-05-25T00:51:11.950Z,1007.69
2016-05-25T00:52:11.937Z,1007.66
2016-05-25T00:53:11.909Z,1007.69
2016-05-25T00:54:11.895Z,1007.63
2016-05-25T00:55:11.852Z,1007.65
2016-05-25T00:56:11.839Z,1007.62
2016-05-25T00:57:11.809Z,1007.6
2016-05-25T00:58:11.781Z,1007.63
2016-05-25T00:59:11.769Z,1007.62
2016-05-25T01:00:11.740Z,1007.65
2016-05-25T01:01:12.477Z,1007.63
2016-05-25T01:02:11.698Z,1007.64
2016-05-25T01:03:11.670Z,1007.65
2016-05-25T01:04:11.641Z,1007.67
2016-05-25T01:05:11.613Z,1007.68
2016-05-25T01:06:11.599Z,1007.66
2016-05-25T01:07:11.571Z,1007.66
2016-05-25T01:08:11.543Z,1007.64
2016-05-25T01:09:11.530Z,1007.64
2016-05-25T01:10:11.502Z,1007.67
2016-05-25T01:11:11.472Z,1007.68
2016-05-25T01:12:11.444Z,1007.74
2016-05-25T01:13:11.431Z,1007.72
2016-05-25T01:14:11.402Z,1007.74
2016-05-25T01:15:11.390Z,1007.73
2016-05-25T01:16:11.876Z,1007.78
2016-05-25T01:17:11.332Z,1007.76
2016-05-25T01:18:11.304Z,1007.78
2016-05-25T01:19:11.291Z,1007.76
2016-05-25T01:20:11.262Z,1007.73
2016-05-25T01:21:11.234Z,1007.75
2016-05-25T01:22:11.206Z,1007.75
2016-05-25T01:23:11.192Z,1007.73
2016-05-25T01:24:11.164Z,1007.72
2016-05-25T01:25:11.135Z,1007.73
2016-05-25T01:26:11.122Z,1007.72
2016-05-25T01:27:11.095Z,1007.76
2016-05-25T01:28:11.065Z,1007.72
2016-05-25T01:29:11.053Z,1007.73
2016-05-25T01:30:11.023Z,1007.72
2016-05-25T01:31:11.245Z,1007.72
2016-05-25T01:32:10.983Z,1007.73
2016-05-25T01:33:10.953Z,1007.71
2016-05-25T01:34:10.925Z,1007.72
2016-05-25T01:35:10.897Z,1007.7
2016-05-25T01:36:10.883Z,1007.68
2016-05-25T01:37:10.855Z,1007.71
2016-05-25T01:38:10.826Z,1007.68
2016-05-25T01:39:10.813Z,1007.68
2016-05-25T01:40:10.786Z,1007.68
2016-05-25T01:41:10.772Z,1007.65
2016-05-25T01:42:10.728Z,1007.7
2016-05-25T01:43:10.715Z,1007.68
2016-05-25T01:44:10.686Z,1007.64
2016-05-25T01:45:10.674Z,1007.64
2016-05-25T01:46:11.223Z,1007.62
2016-05-25T01:47:10.616Z,1007.64
2016-05-25T01:48:10.588Z,1007.62
2016-05-25T01:49:10.575Z,1007.64
2016-05-25T01:50:10.546Z,1007.61
2016-05-25T01:51:10.517Z,1007.61
2016-05-25T01:52:10.490Z,1007.6
2016-05-25T01:53:10.476Z,1007.57
2016-05-25T01:54:10.448Z,1007.55
2016-05-25T01:55:10.434Z,1007.59
2016-05-25T01:56:10.406Z,1007.57
2016-05-25T01:57:10.378Z,1007.54
2016-05-25T01:58:10.348Z,1007.53
2016-05-25T01:59:10.336Z,1007.55
2016-05-25T02:00:10.308Z,1007.49
2016-05-25T02:01:10.279Z,1007.51
2016-05-25T02:02:10.267Z,1007.5
2016-05-25T02:03:10.237Z,1007.5
2016-05-25T02:04:10.209Z,1007.55
2016-05-25T02:05:10.180Z,1007.5
2016-05-25T02:06:10.167Z,1007.52
2016-05-25T02:07:10.139Z,1007.49
2016-05-25T02:08:10.110Z,1007.5
2016-05-25T02:09:10.097Z,1007.52
2016-05-25T02:10:10.069Z,1007.53
2016-05-25T02:11:10.041Z,1007.54
2016-05-25T02:12:10.028Z,1007.55
2016-05-25T02:13:09.999Z,1007.53
2016-05-25T02:14:09.971Z,1007.55
2016-05-25T02:15:09.957Z,1007.52
2016-05-25T02:16:10.085Z,1007.54
2016-05-25T02:17:09.899Z,1007.48
2016-05-25T02:18:09.871Z,1007.54
2016-05-25T02:19:09.859Z,1007.52
2016-05-25T02:20:09.830Z,1007.51
2016-05-25T02:21:09.817Z,1007.5
2016-05-25T02:22:09.788Z,1007.5
2016-05-25T02:23:09.776Z,1007.49
2016-05-25T02:24:09.732Z,1007.55
2016-05-25T02:25:09.718Z,1007.49
2016-05-25T02:26:09.690Z,1007.48
2016-05-25T02:27:09.661Z,1007.45
2016-05-25T02:28:09.633Z,1007.45
2016-05-25T02:29:09.619Z,1007.45
2016-05-25T02:30:09.591Z,1007.44
2016-05-25T02:31:09.578Z,1007.46
2016-05-25T02:32:09.550Z,1007.5
2016-05-25T02:33:09.522Z,1007.48
2016-05-25T02:34:09.493Z,1007.49
2016-05-25T02:35:09.480Z,1007.5
2016-05-25T02:36:09.451Z,1007.47
2016-05-25T02:37:09.422Z,1007.45
2016-05-25T02:38:09.394Z,1007.39
2016-05-25T02:39:09.380Z,1007.34
2016-05-25T02:40:09.353Z,1007.33
2016-05-25T02:41:09.324Z,1007.34
2016-05-25T02:42:09.296Z,1007.3
2016-05-25T02:43:09.283Z,1007.34
2016-05-25T02:44:09.254Z,1007.37
2016-05-25T02:45:09.241Z,1007.39
2016-05-25T02:46:09.213Z,1007.39
2016-05-25T02:47:09.184Z,1007.39
2016-05-25T02:48:09.155Z,1007.37
2016-05-25T02:49:09.142Z,1007.34
2016-05-25T02:50:09.113Z,1007.34
2016-05-25T02:51:09.102Z,1007.34
2016-05-25T02:52:09.056Z,1007.35
2016-05-25T02:53:09.044Z,1007.34
2016-05-25T02:54:09.015Z,1007.34
2016-05-25T02:55:08.987Z,1007.33
2016-05-25T02:56:08.959Z,1007.35
2016-05-25T02:57:08.945Z,1007.33
2016-05-25T02:58:08.917Z,1007.32
2016-05-25T02:59:08.887Z,1007.28
2016-05-25T03:00:08.875Z,1007.28
2016-05-25T03:01:08.847Z,1007.3
2016-05-25T03:02:08.818Z,1007.28
2016-05-25T03:03:08.805Z,1007.29
2016-05-25T03:04:08.776Z,1007.29
2016-05-25T03:05:08.747Z,1007.29
2016-05-25T03:06:08.736Z,1007.27
2016-05-25T03:07:08.706Z,1007.27
2016-05-25T03:08:08.678Z,1007.28
2016-05-25T03:09:08.664Z,1007.25
2016-05-25T03:10:08.636Z,1007.27
2016-05-25T03:11:08.607Z,1007.26
2016-05-25T03:12:08.595Z,1007.27
2016-05-25T03:13:08.566Z,1007.28
2016-05-25T03:14:08.538Z,1007.26
2016-05-25T03:15:08.509Z,1007.3
2016-05-25T03:16:08.480Z,1007.28
2016-05-25T03:17:08.624Z,1007.26
2016-05-25T03:18:08.439Z,1007.26
2016-05-25T03:19:08.410Z,1007.29
2016-05-25T03:20:08.398Z,1007.28
2016-05-25T03:21:08.369Z,1007.31
2016-05-25T03:22:08.341Z,1007.25
2016-05-25T03:23:08.312Z,1007.29
2016-05-25T03:24:08.299Z,1007.28
2016-05-25T03:25:08.271Z,1007.29
2016-05-25T03:26:08.243Z,1007.29
2016-05-25T03:27:08.229Z,1007.3
2016-05-25T03:28:08.201Z,1007.29
2016-05-25T03:29:08.172Z,1007.3
2016-05-25T03:30:08.159Z,1007.3
2016-05-25T03:31:08.396Z,1007.25
2016-05-25T03:32:08.305Z,1007.2
2016-05-25T03:33:08.073Z,1007.23
2016-05-25T03:34:08.061Z,1007.19
2016-05-25T03:35:08.031Z,1007.21
2016-05-25T03:36:08.003Z,1007.22
2016-05-25T03:37:07.975Z,1007.22
2016-05-25T03:38:07.961Z,1007.24
2016-05-25T03:39:07.933Z,1007.22
2016-05-25T03:40:07.905Z,1007.23
2016-05-25T03:41:07.891Z,1007.26
2016-05-25T03:42:07.878Z,1007.28
2016-05-25T03:44:07.821Z,1007.28
2016-05-25T03:45:07.793Z,1007.29
2016-05-25T03:46:07.858Z,1007.29
2016-05-25T03:47:08.080Z,1007.31
2016-05-25T03:48:07.724Z,1007.34
2016-05-25T03:49:07.694Z,1007.34
2016-05-25T03:50:07.682Z,1007.33
2016-05-25T03:51:07.652Z,1007.36
2016-05-25T03:52:07.624Z,1007.32
2016-05-25T03:53:07.612Z,1007.35
2016-05-25T03:54:07.582Z,1007.35
2016-05-25T03:55:07.555Z,1007.31
2016-05-25T03:56:07.541Z,1007.33
2016-05-25T03:57:07.498Z,1007.33
2016-05-25T03:58:07.485Z,1007.27
2016-05-25T03:59:07.454Z,1007.26
2016-05-25T04:00:07.441Z,1007.25
2016-05-25T04:01:07.412Z,1007.25
2016-05-25T04:02:07.383Z,1007.22
2016-05-25T04:03:07.355Z,1007.25
2016-05-25T04:04:07.342Z,1007.27
2016-05-25T04:05:07.313Z,1007.27
2016-05-25T04:06:07.285Z,1007.24
2016-05-25T04:07:07.272Z,1007.24
2016-05-25T04:08:07.242Z,1007.23
2016-05-25T04:09:07.215Z,1007.23
2016-05-25T04:10:07.186Z,1007.24
2016-05-25T04:11:07.173Z,1007.2
2016-05-25T04:12:07.144Z,1007.21
2016-05-25T04:13:07.116Z,1007.23
2016-05-25T04:14:07.103Z,1007.19
2016-05-25T04:15:07.075Z,1007.18
2016-05-25T04:16:07.046Z,1007.12
2016-05-25T04:17:07.033Z,1007.18
2016-05-25T04:18:07.004Z,1007.14
2016-05-25T04:19:06.975Z,1007.11
2016-05-25T04:20:06.970Z,1007.11
2016-05-25T04:21:06.982Z,1007.17
2016-05-25T04:22:06.976Z,1007.16
2016-05-25T04:23:06.972Z,1007.19
2016-05-25T04:24:06.982Z,1007.19
2016-05-25T04:25:06.962Z,1007.19
2016-05-25T04:26:06.943Z,1007.23
2016-05-25T04:27:06.938Z,1007.21
2016-05-25T04:28:06.918Z,1007.2
2016-05-25T04:29:06.898Z,1007.24
2016-05-25T04:30:06.888Z,1007.22
2016-05-25T04:31:07.160Z,1007.22
2016-05-25T04:32:06.838Z,1007.2
2016-05-25T04:33:06.827Z,1007.22
2016-05-25T04:34:06.802Z,1007.2
2016-05-25T04:35:07.618Z,1007.2
2016-05-25T04:36:06.762Z,1007.17
2016-05-25T04:37:06.736Z,1007.13
2016-05-25T04:38:06.707Z,1007.11
2016-05-25T04:39:06.697Z,1007.1
2016-05-25T04:40:06.903Z,1007.07
2016-05-25T04:41:06.639Z,1007.09
2016-05-25T04:42:06.612Z,1007.09
2016-05-25T04:43:06.599Z,1007.09
2016-05-25T04:44:06.570Z,1007.09
2016-05-25T04:45:07.824Z,1007.08
2016-05-25T04:46:06.529Z,1007.08
2016-05-25T04:47:06.501Z,1007.07
2016-05-25T04:48:06.473Z,1007.09
2016-05-25T04:49:06.459Z,1007.06
2016-05-25T04:50:06.431Z,1007.08
2016-05-25T04:51:06.403Z,1007.09
2016-05-25T04:52:06.389Z,1007.06
2016-05-25T04:53:06.361Z,1007.05
2016-05-25T04:54:06.332Z,1007.08
2016-05-25T04:55:06.320Z,1007.06
2016-05-25T04:56:06.291Z,1007.09
2016-05-25T04:57:06.261Z,1007.07
2016-05-25T04:58:06.233Z,1007.06
2016-05-25T04:59:06.221Z,1007.03
2016-05-25T05:00:06.192Z,1007.04
2016-05-25T05:01:06.164Z,1006.99
2016-05-25T05:02:06.150Z,1007.01
2016-05-25T05:03:06.122Z,1007.04
2016-05-25T05:04:06.094Z,1007.05
2016-05-25T05:05:06.080Z,1007.07
2016-05-25T05:06:06.052Z,1007.05
2016-05-25T05:07:06.023Z,1007.09
2016-05-25T05:08:06.010Z,1007.04
2016-05-25T05:09:05.982Z,1007.11
2016-05-25T05:10:05.953Z,1007.13
2016-05-25T05:11:05.924Z,1007.18
2016-05-25T05:12:05.912Z,1007.16
2016-05-25T05:13:05.884Z,1007.18
2016-05-25T05:14:05.854Z,1007.19
2016-05-25T05:15:05.842Z,1007.2
2016-05-25T05:16:05.813Z,1007.17
2016-05-25T05:17:05.832Z,1007.16
2016-05-25T05:18:05.772Z,1007.16
2016-05-25T05:19:05.743Z,1007.14
2016-05-25T05:20:05.714Z,1007.16
2016-05-25T05:21:05.702Z,1007.2
2016-05-25T05:22:05.673Z,1007.19
2016-05-25T05:23:05.661Z,1007.18
2016-05-25T05:24:05.631Z,1007.21
2016-05-25T05:25:05.603Z,1007.2
2016-05-25T05:26:05.575Z,1007.21
2016-05-25T05:27:05.562Z,1007.21
2016-05-25T05:28:05.533Z,1007.23
2016-05-25T05:29:05.505Z,1007.24
2016-05-25T05:30:05.491Z,1007.19
2016-05-25T05:31:05.463Z,1007.2
2016-05-25T05:32:05.435Z,1007.19
2016-05-25T05:33:05.422Z,1007.22
2016-05-25T05:34:05.393Z,1007.17
2016-05-25T05:35:05.380Z,1007.19
2016-05-25T05:36:05.352Z,1007.16
2016-05-25T05:37:05.324Z,1007.23
2016-05-25T05:38:05.310Z,1007.21
2016-05-25T05:39:05.282Z,1007.25
2016-05-25T05:40:05.252Z,1007.24
2016-05-25T05:41:05.240Z,1007.27
2016-05-25T05:42:05.212Z,1007.24
2016-05-25T05:43:05.182Z,1007.29
2016-05-25T05:44:05.170Z,1007.28
2016-05-25T05:45:05.140Z,1007.31
2016-05-25T05:46:07.191Z,1007.31
2016-05-25T05:47:05.100Z,1007.33
2016-05-25T05:48:05.071Z,1007.33
2016-05-25T05:49:05.043Z,1007.32
2016-05-25T05:50:05.029Z,1007.33
2016-05-25T05:51:05.001Z,1007.33
2016-05-25T05:52:04.973Z,1007.37
2016-05-25T05:53:04.959Z,1007.35
2016-05-25T05:54:04.931Z,1007.34
2016-05-25T05:55:04.917Z,1007.38
2016-05-25T05:56:04.890Z,1007.34
2016-05-25T05:57:04.861Z,1007.35
2016-05-25T05:58:04.833Z,1007.39
2016-05-25T05:59:04.820Z,1007.41
2016-05-25T06:00:04.806Z,1007.4
2016-05-25T06:01:04.778Z,1007.44
2016-05-25T06:02:04.749Z,1007.41
2016-05-25T06:03:04.736Z,1007.47
2016-05-25T06:04:04.708Z,1007.47
2016-05-25T06:05:04.679Z,1007.45
2016-05-25T06:06:04.666Z,1007.47
2016-05-25T06:07:04.638Z,1007.48
2016-05-25T06:08:04.609Z,1007.5
2016-05-25T06:09:04.597Z,1007.51
2016-05-25T06:10:04.568Z,1007.5
2016-05-25T06:11:04.555Z,1007.51
2016-05-25T06:12:04.527Z,1007.5
2016-05-25T06:13:04.498Z,1007.52
2016-05-25T06:14:04.485Z,1007.5
2016-05-25T06:15:04.456Z,1007.5
2016-05-25T06:16:04.428Z,1007.47
2016-05-25T06:17:04.415Z,1007.48
2016-05-25T06:18:04.386Z,1007.49
2016-05-25T06:19:04.374Z,1007.5
2016-05-25T06:20:04.345Z,1007.51
2016-05-25T06:21:04.316Z,1007.51
2016-05-25T06:22:04.304Z,1007.52
2016-05-25T06:23:04.275Z,1007.52
2016-05-25T06:24:04.262Z,1007.52
2016-05-25T06:25:04.234Z,1007.55
2016-05-25T06:26:04.205Z,1007.57
2016-05-25T06:27:04.192Z,1007.58
2016-05-25T06:28:04.163Z,1007.58
2016-05-25T06:29:04.150Z,1007.59
2016-05-25T06:30:04.121Z,1007.55
2016-05-25T06:31:04.108Z,1007.6
2016-05-25T06:32:04.080Z,1007.6
2016-05-25T06:33:04.052Z,1007.55
2016-05-25T06:34:04.039Z,1007.56
2016-05-25T06:35:04.026Z,1007.57
2016-05-25T06:36:03.997Z,1007.61
2016-05-25T06:37:03.969Z,1007.58
2016-05-25T06:38:03.941Z,1007.59
2016-05-25T06:39:03.927Z,1007.59
2016-05-25T06:40:03.899Z,1007.57
2016-05-25T06:41:03.870Z,1007.62
2016-05-25T06:42:03.858Z,1007.58
2016-05-25T06:43:03.829Z,1007.63
2016-05-25T06:44:03.816Z,1007.64
2016-05-25T06:45:03.787Z,1007.69
2016-05-25T06:46:03.759Z,1007.72
2016-05-25T06:47:03.745Z,1007.67
2016-05-25T06:48:03.717Z,1007.73
2016-05-25T06:49:03.704Z,1007.69
2016-05-25T06:50:03.675Z,1007.72
2016-05-25T06:51:03.663Z,1007.72
2016-05-25T06:52:03.634Z,1007.73
2016-05-25T06:53:03.605Z,1007.77
2016-05-25T06:54:03.593Z,1007.75
2016-05-25T06:55:03.564Z,1007.8
2016-05-25T06:56:03.551Z,1007.8
2016-05-25T06:57:03.523Z,1007.78
2016-05-25T06:58:03.494Z,1007.75
2016-05-25T06:59:03.481Z,1007.77
2016-05-25T07:00:03.452Z,1007.75
2016-05-25T07:01:03.439Z,1007.71
2016-05-25T07:02:03.411Z,1007.73
2016-05-25T07:03:03.398Z,1007.75
2016-05-25T07:04:03.369Z,1007.75
2016-05-25T07:05:03.341Z,1007.76
2016-05-25T07:06:03.328Z,1007.75
2016-05-25T07:07:03.315Z,1007.79
2016-05-25T07:08:03.286Z,1007.76
2016-05-25T07:09:03.258Z,1007.78
2016-05-25T07:10:03.229Z,1007.78
2016-05-25T07:11:03.216Z,1007.8
2016-05-25T07:12:03.188Z,1007.8
2016-05-25T07:13:03.174Z,1007.85
2016-05-25T07:14:03.162Z,1007.82
2016-05-25T07:15:03.133Z,1007.83
2016-05-25T07:16:03.104Z,1007.8
2016-05-25T07:17:03.092Z,1007.82
2016-05-25T07:18:03.063Z,1007.78
2016-05-25T07:19:03.035Z,1007.75
2016-05-25T07:20:03.021Z,1007.73
2016-05-25T07:21:02.993Z,1007.78
2016-05-25T07:22:02.981Z,1007.82
2016-05-25T07:23:02.952Z,1007.78
2016-05-25T07:24:02.939Z,1007.82
2016-05-25T07:25:02.910Z,1007.77
2016-05-25T07:26:02.897Z,1007.79
2016-05-25T07:27:02.869Z,1007.77
2016-05-25T07:28:02.840Z,1007.8
2016-05-25T07:29:02.827Z,1007.79
2016-05-25T07:30:02.814Z,1007.78
2016-05-25T07:31:02.786Z,1007.81
2016-05-25T07:32:02.789Z,1007.79
2016-05-25T07:33:02.744Z,1007.81
2016-05-25T07:34:02.716Z,1007.78
2016-05-25T07:35:02.703Z,1007.78
2016-05-25T07:36:02.674Z,1007.79
2016-05-25T07:37:02.647Z,1007.75
2016-05-25T07:38:02.633Z,1007.76
2016-05-25T07:39:02.620Z,1007.8
2016-05-25T07:40:02.591Z,1007.77
2016-05-25T07:41:02.563Z,1007.79
2016-05-25T07:42:02.549Z,1007.79
2016-05-25T07:43:02.521Z,1007.8
2016-05-25T07:44:02.508Z,1007.77
2016-05-25T07:45:02.480Z,1007.78
2016-05-25T07:46:02.466Z,1007.81
2016-05-25T07:47:02.532Z,1007.77
2016-05-25T07:48:02.426Z,1007.8
2016-05-25T07:49:02.396Z,1007.76
2016-05-25T07:50:02.400Z,1007.82
2016-05-25T07:51:02.355Z,1007.8
2016-05-25T07:52:02.343Z,1007.82
2016-05-25T07:53:02.329Z,1007.79
2016-05-25T07:54:02.285Z,1007.81
2016-05-25T07:55:02.273Z,1007.8
2016-05-25T07:56:02.244Z,1007.79
2016-05-25T07:57:02.231Z,1007.82
2016-05-25T07:58:06.764Z,1007.81
2016-05-25T07:59:02.190Z,1007.77
2016-05-25T08:00:02.161Z,1007.8
2016-05-25T08:01:02.147Z,1007.85
2016-05-25T08:02:02.134Z,1007.8
2016-05-25T08:03:02.091Z,1007.83
2016-05-25T08:04:02.078Z,1007.81
2016-05-25T08:05:02.065Z,1007.86
2016-05-25T08:06:02.036Z,1007.87
2016-05-25T08:07:02.008Z,1007.86
2016-05-25T08:08:01.995Z,1007.89
2016-05-25T08:09:01.966Z,1007.9
2016-05-25T08:10:01.953Z,1007.93
2016-05-25T08:11:01.941Z,1007.91
2016-05-25T08:12:01.912Z,1007.9
2016-05-25T08:13:01.899Z,1007.92
2016-05-25T08:14:01.870Z,1007.95
2016-05-25T08:15:01.857Z,1007.92
2016-05-25T08:16:01.829Z,1007.97
2016-05-25T08:17:01.816Z,1007.98
2016-05-25T08:18:01.803Z,1007.98
2016-05-25T08:19:01.759Z,1007.98
2016-05-25T08:20:01.746Z,1007.97
2016-05-25T08:21:01.718Z,1007.95
2016-05-25T08:22:01.704Z,1007.95
2016-05-25T08:23:01.676Z,1007.94
2016-05-25T08:24:01.648Z,1007.97
2016-05-25T08:25:01.634Z,1007.99
2016-05-25T08:26:01.621Z,1007.94
2016-05-25T08:27:01.592Z,1007.94
2016-05-25T08:28:01.564Z,1007.95
2016-05-25T08:29:01.551Z,1007.97
2016-05-25T08:30:01.539Z,1007.99
2016-05-25T08:31:01.509Z,1007.99
2016-05-25T08:32:01.481Z,1008.01
2016-05-25T08:33:01.468Z,1008
2016-05-25T08:34:01.440Z,1007.99
2016-05-25T08:35:01.442Z,1007.99
2016-05-25T08:36:01.398Z,1007.98
2016-05-25T08:37:01.385Z,1007.97
2016-05-25T08:38:01.357Z,1007.96
2016-05-25T08:39:01.344Z,1007.95
2016-05-25T08:40:01.331Z,1007.92
2016-05-25T08:41:01.302Z,1007.94
2016-05-25T08:42:01.305Z,1007.92
2016-05-25T08:43:01.261Z,1007.93
2016-05-25T08:44:01.247Z,1007.93
2016-05-25T08:45:01.219Z,1007.92
2016-05-25T08:46:01.191Z,1007.88
2016-05-25T08:47:01.677Z,1007.9
2016-05-25T08:48:01.149Z,1007.85
2016-05-25T08:49:01.136Z,1007.9
2016-05-25T08:50:01.107Z,1007.9
2016-05-25T08:51:02.235Z,1007.94
2016-05-25T08:52:01.066Z,1007.98
2016-05-25T08:53:02.679Z,1007.97
2016-05-25T08:54:02.071Z,1007.94
2016-05-25T08:55:02.606Z,1007.97
2016-05-25T08:56:02.234Z,1007.98
2016-05-25T08:57:02.079Z,1007.97
2016-05-25T08:58:02.379Z,1007.97
2016-05-25T08:59:02.507Z,1007.99
2016-05-25T09:00:00.901Z,1008.01
2016-05-25T09:01:00.887Z,1008.01
2016-05-25T09:02:00.875Z,1007.99
2016-05-25T09:03:00.846Z,1007.97
2016-05-25T09:04:00.817Z,1007.99
2016-05-25T09:05:00.803Z,1008
2016-05-25T09:06:00.776Z,1007.94
2016-05-25T09:07:00.763Z,1007.97
2016-05-25T09:08:00.734Z,1008
2016-05-25T09:09:00.722Z,1007.96
2016-05-25T09:10:00.692Z,1007.96
2016-05-25T09:11:00.680Z,1007.94
2016-05-25T09:12:00.667Z,1007.96
2016-05-25T09:13:01.936Z,1007.94
2016-05-25T09:14:01.844Z,1007.93
2016-05-25T09:15:02.003Z,1007.94
2016-05-25T09:16:00.569Z,1007.94
2016-05-25T09:17:00.556Z,1007.94
2016-05-25T09:18:00.526Z,1007.96
2016-05-25T09:19:00.514Z,1007.97
2016-05-25T09:20:00.485Z,1007.96
2016-05-25T09:21:00.457Z,1007.95
2016-05-25T09:22:00.444Z,1007.92
2016-05-25T09:23:00.416Z,1007.93
2016-05-25T09:24:00.402Z,1007.99
2016-05-25T09:25:00.374Z,1007.98
2016-05-25T09:26:00.360Z,1007.98
2016-05-25T09:27:00.348Z,1008.01
2016-05-25T09:28:00.600Z,1007.99
2016-05-25T09:29:00.290Z,1007.97
2016-05-25T09:30:00.278Z,1007.98
2016-05-25T09:31:00.249Z,1007.96
2016-05-25T09:32:00.237Z,1007.97
2016-05-25T09:33:01.536Z,1007.95
2016-05-25T09:34:00.195Z,1007.97
2016-05-25T09:35:00.167Z,1007.98
2016-05-25T09:36:00.153Z,1007.99
2016-05-25T09:37:00.125Z,1008
2016-05-25T09:38:01.502Z,1007.99
2016-05-25T09:39:01.475Z,1007.96
2016-05-25T09:40:00.070Z,1007.95
2016-05-25T09:41:00.041Z,1007.95
2016-05-25T09:42:00.014Z,1007.96
2016-05-25T09:43:01.064Z,1007.97
2016-05-25T09:43:59.972Z,1007.98
2016-05-25T09:44:59.958Z,1008
2016-05-25T09:45:59.930Z,1008
2016-05-25T09:46:59.917Z,1008.01
2016-05-25T09:47:59.889Z,1008.01
2016-05-25T09:48:59.876Z,1008.06
2016-05-25T09:49:59.847Z,1008.02
2016-05-25T09:50:59.835Z,1008.03
2016-05-25T09:51:59.805Z,1008.03
2016-05-25T09:52:59.793Z,1008.01
2016-05-25T09:53:59.780Z,1008
2016-05-25T09:54:59.751Z,1008.04
2016-05-25T09:55:59.723Z,1008.08
2016-05-25T09:56:59.709Z,1008.1
2016-05-25T09:57:59.697Z,1008.13
2016-05-25T09:58:59.668Z,1008.1
2016-05-25T09:59:59.655Z,1008.13
2016-05-25T10:00:59.626Z,1008.13
2016-05-25T10:01:59.629Z,1008.12
2016-05-25T10:02:59.601Z,1008.13
2016-05-25T10:03:59.572Z,1008.17
2016-05-25T10:04:59.559Z,1008.16
2016-05-25T10:05:59.531Z,1008.16
2016-05-25T10:06:59.517Z,1008.17
2016-05-25T10:07:59.489Z,1008.18
2016-05-25T10:08:59.476Z,1008.13
2016-05-25T10:09:59.464Z,1008.16
2016-05-25T10:10:59.435Z,1008.18
2016-05-25T10:11:59.422Z,1008.15
2016-05-25T10:12:59.409Z,1008.12
2016-05-25T10:13:59.380Z,1008.12
2016-05-25T10:14:59.367Z,1008.12
2016-05-25T10:15:59.355Z,1008.13
2016-05-25T10:16:59.327Z,1008.16
2016-05-25T10:17:59.314Z,1008.14
2016-05-25T10:18:59.300Z,1008.14
2016-05-25T10:19:59.271Z,1008.08
2016-05-25T10:20:59.258Z,1008.1
2016-05-25T10:21:59.230Z,1008.09
2016-05-25T10:22:59.218Z,1008.1
2016-05-25T10:23:59.204Z,1008.07
2016-05-25T10:24:59.177Z,1008.1
2016-05-25T10:25:59.163Z,1008.09
2016-05-25T10:26:59.149Z,1008.05
2016-05-25T10:27:59.122Z,1008.07
2016-05-25T10:28:59.109Z,1008.03
2016-05-25T10:29:59.079Z,1008.03
2016-05-25T10:30:59.067Z,1008
2016-05-25T10:31:59.054Z,1007.99
2016-05-25T10:32:59.026Z,1008
2016-05-25T10:33:59.012Z,1007.99
2016-05-25T10:34:58.984Z,1008
2016-05-25T10:35:59.659Z,1007.97
2016-05-25T10:36:58.942Z,1007.98
2016-05-25T10:37:58.929Z,1007.97
2016-05-25T10:38:58.917Z,1007.94
2016-05-25T10:39:58.888Z,1007.97
2016-05-25T10:40:58.891Z,1007.95
2016-05-25T10:41:58.847Z,1007.98
2016-05-25T10:42:58.834Z,1007.99
2016-05-25T10:43:58.805Z,1007.96
2016-05-25T10:44:58.791Z,1008.01
2016-05-25T10:45:58.779Z,1008
2016-05-25T10:46:58.750Z,1008
2016-05-25T10:47:59.113Z,1008.03
2016-05-25T10:48:58.725Z,1008.04
2016-05-25T10:49:58.696Z,1008.03
2016-05-25T10:50:58.683Z,1008.03
2016-05-25T10:51:58.655Z,1008.01
2016-05-25T10:52:58.642Z,1008.01
2016-05-25T10:53:58.613Z,1008
2016-05-25T10:54:58.616Z,1008.01
2016-05-25T10:55:58.572Z,1007.99
2016-05-25T10:56:58.559Z,1007.98
2016-05-25T10:57:58.546Z,1008
2016-05-25T10:58:58.517Z,1008
2016-05-25T10:59:58.504Z,1008.02
2016-05-25T11:00:58.491Z,1008.07
2016-05-25T11:01:58.947Z,1008.01
2016-05-25T11:02:58.466Z,1008.05
2016-05-25T11:03:58.421Z,1007.99
2016-05-25T11:04:58.409Z,1007.98
2016-05-25T11:05:58.380Z,1007.99
2016-05-25T11:06:58.367Z,1007.96
2016-05-25T11:07:58.354Z,1007.97
2016-05-25T11:08:58.325Z,1007.96
2016-05-25T11:09:58.312Z,1007.96
2016-05-25T11:10:58.284Z,1007.93
2016-05-25T11:11:58.271Z,1007.98
2016-05-25T11:12:58.258Z,1007.98
2016-05-25T11:13:58.229Z,1007.98
2016-05-25T11:14:58.216Z,1007.98
2016-05-25T11:15:58.203Z,1008
2016-05-25T11:16:58.175Z,1007.95
2016-05-25T11:17:58.178Z,1007.96
2016-05-25T11:18:58.150Z,1007.94
2016-05-25T11:19:58.136Z,1007.94
2016-05-25T11:20:58.107Z,1007.92
2016-05-25T11:21:58.080Z,1007.91
2016-05-25T11:22:59.941Z,1007.96
2016-05-25T11:23:58.053Z,1007.92
2016-05-25T11:24:58.040Z,1007.9
2016-05-25T11:25:58.013Z,1007.95
2016-05-25T11:26:57.999Z,1007.9
2016-05-25T11:27:57.970Z,1007.94
2016-05-25T11:28:57.957Z,1007.93
2016-05-25T11:29:57.944Z,1007.9
2016-05-25T11:30:57.915Z,1007.91
2016-05-25T11:31:57.903Z,1007.9
2016-05-25T11:32:58.718Z,1007.92
2016-05-25T11:33:57.877Z,1007.92
2016-05-25T11:34:57.849Z,1007.92
2016-05-25T11:35:57.835Z,1007.94
2016-05-25T11:36:57.822Z,1007.95
2016-05-25T11:37:57.795Z,1007.93
2016-05-25T11:38:57.781Z,1007.95
2016-05-25T11:39:57.768Z,1007.97
2016-05-25T11:40:57.756Z,1007.97
2016-05-25T11:41:57.726Z,1007.99
2016-05-25T11:42:57.714Z,1008.01
2016-05-25T11:43:57.700Z,1008
2016-05-25T11:44:57.672Z,1007.94
2016-05-25T11:45:57.659Z,1008.04
2016-05-25T11:46:57.647Z,1008
2016-05-25T11:47:57.993Z,1008.01
2016-05-25T11:48:57.605Z,1008
2016-05-25T11:49:57.592Z,1008.02
2016-05-25T11:50:57.579Z,1008.01
2016-05-25T11:51:57.550Z,1008.02
2016-05-25T11:52:57.538Z,1007.98
2016-05-25T11:53:57.524Z,1007.98
2016-05-25T11:54:57.496Z,1008
2016-05-25T11:55:57.483Z,1007.98
2016-05-25T11:56:57.470Z,1008
2016-05-25T11:57:57.457Z,1007.96
2016-05-25T11:58:57.429Z,1007.96
2016-05-25T11:59:57.416Z,1007.95
2016-05-25T12:00:57.402Z,1007.92
2016-05-25T12:01:57.562Z,1007.92
2016-05-25T12:02:57.362Z,1007.94
2016-05-25T12:03:57.349Z,1007.96
2016-05-25T12:04:57.335Z,1007.94
2016-05-25T12:05:57.322Z,1007.93
2016-05-25T12:06:57.309Z,1007.94
2016-05-25T12:07:57.296Z,1007.93
2016-05-25T12:08:57.268Z,1007.92
2016-05-25T12:09:57.240Z,1007.89